Time;durP1;ratioP1;P1;durP2;ratioP2;P2;SDS_P1;SDS_P2;PMS_P1;PMS_P2;Temp;Humidity;BMP_temperature;BMP_pressure;BME280_temperature;BME280_humidity;BME280_pressure;Samples;Min_cycle;Max_cycle;Signal;HPM_P1;HPM_P2
2022/07/14 00:01:03;;;;;;;6.40;1.60;;;16.10;99.90;;;;;;5089337;28;20052;-76
2022/07/14 00:03:28;;;;;;;11.52;2.00;;;16.00;99.90;;;;;;5073685;28;20502;-76
2022/07/14 00:05:54;;;;;;;11.85;2.13;;;16.10;99.90;;;;;;5073763;28;20124;-77
2022/07/14 00:08:20;;;;;;;10.07;2.00;;;16.00;99.90;;;;;;5089268;28;20049;-77
2022/07/14 00:10:46;;;;;;;7.35;1.77;;;16.00;99.90;;;;;;5073439;28;20056;-77
2022/07/14 00:13:11;;;;;;;11.75;2.28;;;16.00;99.90;;;;;;5073717;28;20178;-76
2022/07/14 00:15:37;;;;;;;11.07;2.30;;;16.00;99.90;;;;;;5073590;28;20482;-77
2022/07/14 00:18:03;;;;;;;9.85;1.90;;;15.90;99.90;;;;;;5073512;28;20040;-77
2022/07/14 00:20:29;;;;;;;6.75;2.40;;;15.80;99.90;;;;;;5072254;28;20117;-76
2022/07/14 00:22:58;;;;;;;10.48;2.00;;;15.90;99.90;;;;;;5075721;28;20045;-77
2022/07/14 00:25:25;;;;;;;9.63;2.00;;;15.90;99.90;;;;;;5076577;28;20056;-77
2022/07/14 00:27:51;;;;;;;9.18;1.95;;;15.80;99.90;;;;;;5077590;28;20475;-77
2022/07/14 00:30:17;;;;;;;8.48;1.80;;;15.90;99.90;;;;;;5076461;28;20071;-77
2022/07/14 00:32:42;;;;;;;6.15;1.65;;;15.90;99.90;;;;;;5077656;28;20394;-77
2022/07/14 00:35:09;;;;;;;10.60;1.50;;;15.90;99.90;;;;;;5077628;28;20040;-77
2022/07/14 00:37:34;;;;;;;11.15;1.55;;;15.90;99.90;;;;;;5077355;28;20537;-77
2022/07/14 00:40:04;;;;;;;8.48;1.73;;;15.90;99.90;;;;;;5077498;28;20052;-77
2022/07/14 00:42:34;;;;;;;5.00;1.42;;;15.80;99.90;;;;;;5077465;28;20036;-77
2022/07/14 00:45:04;;;;;;;7.80;2.10;;;15.80;99.90;;;;;;5077244;28;20080;-77
2022/07/14 00:47:30;;;;;;;10.88;2.08;;;15.80;99.90;;;;;;5076360;28;20071;-76
2022/07/14 00:49:56;;;;;;;5.90;1.50;;;15.70;99.90;;;;;;5077108;28;20101;-77
2022/07/14 00:52:23;;;;;;;6.72;1.42;;;15.70;99.90;;;;;;5077291;28;20044;-77
2022/07/14 00:54:49;;;;;;;8.35;1.60;;;15.70;99.90;;;;;;5075776;28;20045;-77
2022/07/14 00:57:15;;;;;;;11.82;1.63;;;15.70;99.90;;;;;;5076051;28;20051;-77
2022/07/14 00:59:41;;;;;;;7.25;1.08;;;15.60;99.90;;;;;;5077104;28;20047;-77
2022/07/14 01:02:07;;;;;;;6.25;1.23;;;15.60;99.90;;;;;;5077050;28;20131;-77
2022/07/14 01:04:32;;;;;;;7.60;1.85;;;15.70;99.90;;;;;;5075645;28;20387;-77
2022/07/14 01:06:58;;;;;;;7.22;1.00;;;15.70;99.90;;;;;;5092653;28;20052;-77
2022/07/14 01:09:24;;;;;;;7.93;1.48;;;15.70;99.90;;;;;;5076589;28;20372;-77
2022/07/14 01:11:49;;;;;;;6.93;1.35;;;15.70;99.90;;;;;;5092390;28;20045;-77
2022/07/14 01:14:15;;;;;;;8.45;1.08;;;15.70;99.90;;;;;;5076826;28;20033;-77
2022/07/14 01:16:40;;;;;;;4.32;0.85;;;15.60;99.90;;;;;;5092463;28;20091;-76
2022/07/14 01:19:06;;;;;;;5.82;1.10;;;15.60;99.90;;;;;;5076660;28;20044;-76
2022/07/14 01:21:32;;;;;;;5.40;1.50;;;15.60;99.90;;;;;;5076278;28;20040;-76
2022/07/14 01:23:57;;;;;;;8.18;1.30;;;15.50;99.90;;;;;;5076708;28;20512;-76
2022/07/14 01:26:24;;;;;;;5.13;1.27;;;15.50;99.90;;;;;;5076408;28;20494;-77
2022/07/14 01:28:49;;;;;;;6.07;1.15;;;15.40;99.90;;;;;;5076466;28;20508;-76
2022/07/14 01:31:15;;;;;;;6.97;1.10;;;15.30;99.90;;;;;;5075144;28;20048;-77
2022/07/14 01:33:41;;;;;;;4.05;0.90;;;15.40;99.90;;;;;;5075771;28;20040;-77
2022/07/14 01:36:06;;;;;;;6.93;1.23;;;15.40;99.90;;;;;;5076125;28;20049;-77
2022/07/14 01:38:32;;;;;;;4.05;0.90;;;15.40;99.90;;;;;;5076411;28;20047;-77
2022/07/14 01:40:58;;;;;;;6.05;0.93;;;15.30;99.90;;;;;;5076308;28;20093;-77
2022/07/14 01:43:23;;;;;;;7.18;1.27;;;15.30;99.90;;;;;;5076330;28;20041;-77
2022/07/14 01:45:49;;;;;;;6.95;1.75;;;15.30;99.90;;;;;;5076245;28;20123;-77
2022/07/14 01:48:15;;;;;;;7.68;0.95;;;15.20;99.90;;;;;;5075984;28;20059;-77
2022/07/14 01:50:40;;;;;;;4.25;0.93;;;15.20;99.90;;;;;;5091689;28;20079;-77
2022/07/14 01:53:06;;;;;;;7.78;1.38;;;15.20;99.90;;;;;;5076153;28;20382;-76
2022/07/14 01:55:32;;;;;;;5.70;1.17;;;15.20;99.90;;;;;;5076171;28;20143;-77
2022/07/14 01:57:58;;;;;;;6.28;0.85;;;15.20;99.90;;;;;;5076102;28;20497;-76
2022/07/14 02:00:25;;;;;;;4.65;1.00;;;15.20;99.90;;;;;;5076016;28;20105;-77
2022/07/14 02:02:50;;;;;;;8.18;1.00;;;15.10;99.90;;;;;;5075881;28;20123;-77
2022/07/14 02:05:16;;;;;;;4.00;0.80;;;15.10;99.90;;;;;;5075664;28;20048;-77
2022/07/14 02:07:41;;;;;;;6.85;0.60;;;15.10;99.90;;;;;;5075709;28;20045;-76
2022/07/14 02:12:52;;;;;;;6.63;1.23;;;15.10;99.90;;;;;;5075807;28;20099;-77
2022/07/14 02:15:17;;;;;;;3.67;1.00;;;15.10;99.90;;;;;;5075595;28;20048;-77
2022/07/14 02:17:43;;;;;;;8.88;1.00;;;15.00;99.90;;;;;;5075654;28;20480;-77
2022/07/14 02:20:10;;;;;;;6.38;1.38;;;15.00;99.90;;;;;;5090855;28;20406;-77
2022/07/14 02:22:36;;;;;;;5.47;0.73;;;15.00;99.90;;;;;;5091067;28;20573;-77
2022/07/14 02:25:02;;;;;;;5.50;1.00;;;15.00;99.90;;;;;;5075530;28;20084;-77
2022/07/14 02:27:28;;;;;;;5.93;0.80;;;15.00;99.90;;;;;;5075536;28;20040;-77
2022/07/14 02:29:54;;;;;;;5.55;0.75;;;14.90;99.90;;;;;;5075306;28;20059;-76
2022/07/14 02:32:20;;;;;;;4.28;0.80;;;14.90;99.90;;;;;;5075429;28;20040;-76
2022/07/14 02:34:45;;;;;;;5.28;0.68;;;15.00;99.90;;;;;;5075306;28;20463;-77
2022/07/14 02:37:12;;;;;;;6.80;1.15;;;15.00;99.90;;;;;;5075308;28;20044;-77
2022/07/14 02:39:37;;;;;;;4.68;0.75;;;14.90;99.90;;;;;;5075191;28;20044;-77
2022/07/14 02:42:03;;;;;;;8.38;0.90;;;14.90;99.90;;;;;;5075116;28;20399;-77
2022/07/14 02:44:29;;;;;;;6.43;0.70;;;14.90;99.90;;;;;;5075097;28;20041;-77
2022/07/14 02:46:54;;;;;;;6.90;0.80;;;14.80;99.90;;;;;;5073899;28;20123;-77
2022/07/14 02:49:20;;;;;;;4.78;0.93;;;14.90;99.90;;;;;;5074937;28;20040;-77
2022/07/14 02:51:46;;;;;;;8.25;0.70;;;14.80;99.90;;;;;;5075024;28;20044;-77
2022/07/14 02:54:11;;;;;;;5.10;0.80;;;14.80;99.90;;;;;;5090513;28;20048;-76
2022/07/14 02:56:37;;;;;;;5.72;0.80;;;14.80;99.90;;;;;;5074862;28;20090;-77
2022/07/14 02:59:06;;;;;;;4.60;0.90;;;14.70;99.90;;;;;;5074758;28;20093;-76
2022/07/14 03:01:32;;;;;;;6.38;1.05;;;14.60;99.90;;;;;;5074806;28;20044;-77
2022/07/14 03:03:58;;;;;;;4.45;1.10;;;14.60;99.90;;;;;;5074730;28;20101;-76
2022/07/14 03:06:23;;;;;;;3.50;0.73;;;14.50;99.90;;;;;;5073592;28;20153;-76
2022/07/14 03:08:49;;;;;;;4.80;0.85;;;14.40;99.90;;;;;;5074497;28;20398;-76
2022/07/14 03:11:15;;;;;;;5.45;0.82;;;14.40;99.90;;;;;;5073030;28;20606;-76
2022/07/14 03:13:40;;;;;;;4.90;0.90;;;14.30;99.90;;;;;;5072389;28;20051;-76
2022/07/14 03:16:09;;;;;;;5.35;1.00;;;14.20;99.90;;;;;;5073416;28;20051;-76
2022/07/14 03:18:35;;;;;;;4.75;0.88;;;14.10;99.90;;;;;;5088928;28;20090;-76
2022/07/14 03:21:05;;;;;;;3.72;1.17;;;14.00;99.90;;;;;;5072642;28;20064;-76
2022/07/14 03:23:31;;;;;;;2.17;0.80;;;13.90;99.90;;;;;;5074085;28;20123;-76
2022/07/14 03:25:56;;;;;;;6.18;1.02;;;13.80;99.90;;;;;;5074184;28;20123;-76
2022/07/14 03:28:22;;;;;;;5.53;1.08;;;13.80;99.90;;;;;;5074198;28;20048;-76
2022/07/14 03:30:54;;;;;;;4.28;1.38;;;13.70;99.90;;;;;;5074127;28;20468;-76
2022/07/14 03:33:19;;;;;;;4.80;0.80;;;13.70;99.90;;;;;;5072963;28;20063;-76
2022/07/14 03:35:45;;;;;;;2.83;0.82;;;13.60;99.90;;;;;;5073925;28;20040;-77
2022/07/14 03:38:11;;;;;;;6.07;1.00;;;13.60;99.90;;;;;;5072838;28;20048;-77
2022/07/14 03:40:37;;;;;;;4.43;1.00;;;13.50;99.90;;;;;;5073733;28;20564;-76
2022/07/14 03:43:02;;;;;;;6.65;1.55;;;13.40;99.90;;;;;;5072474;28;20532;-76
2022/07/14 03:45:28;;;;;;;4.97;1.13;;;13.40;99.90;;;;;;5073892;28;20098;-76
2022/07/14 03:47:54;;;;;;;9.48;1.70;;;13.40;99.90;;;;;;5089347;28;20093;-76
2022/07/14 03:50:20;;;;;;;4.78;0.90;;;13.30;99.90;;;;;;5073610;28;20028;-76
2022/07/14 03:52:46;;;;;;;8.30;1.30;;;13.30;99.90;;;;;;5073891;28;20051;-76
2022/07/14 03:55:11;;;;;;;10.68;1.50;;;13.30;99.90;;;;;;5072336;28;20124;-76
2022/07/14 03:57:37;;;;;;;6.60;1.40;;;13.30;99.90;;;;;;5071985;28;20082;-76
2022/07/14 04:00:04;;;;;;;6.05;1.38;;;13.30;99.90;;;;;;5073772;28;20499;-76
2022/07/14 04:02:29;;;;;;;5.40;1.65;;;13.20;99.90;;;;;;5073741;28;20056;-77
2022/07/14 04:04:55;;;;;;;5.70;1.45;;;13.30;99.90;;;;;;5089326;28;20041;-77
2022/07/14 04:07:21;;;;;;;5.40;1.30;;;13.30;99.90;;;;;;5073710;28;20044;-76
2022/07/14 04:09:46;;;;;;;4.22;1.30;;;13.30;99.90;;;;;;5073608;28;20045;-77
2022/07/14 04:12:13;;;;;;;5.72;1.67;;;13.40;99.90;;;;;;5089277;28;20109;-77
2022/07/14 04:14:39;;;;;;;4.45;1.35;;;13.30;99.90;;;;;;5073615;28;20060;-76
2022/07/14 04:17:04;;;;;;;10.65;1.90;;;13.40;99.90;;;;;;5073572;28;20141;-76
2022/07/14 04:19:30;;;;;;;7.72;1.80;;;13.50;99.90;;;;;;5073579;28;20033;-76
2022/07/14 04:21:56;;;;;;;8.95;1.38;;;13.60;99.90;;;;;;5088788;28;20052;-77
2022/07/14 04:24:21;;;;;;;4.05;1.50;;;13.70;99.90;;;;;;5088783;28;20051;-76
2022/07/14 04:26:47;;;;;;;7.45;1.60;;;13.70;99.90;;;;;;5089028;28;20063;-77
2022/07/14 04:29:13;;;;;;;9.30;2.33;;;13.80;99.90;;;;;;5089012;28;20084;-76
2022/07/14 04:31:39;;;;;;;7.25;1.63;;;13.80;99.90;;;;;;5073449;28;20048;-76
2022/07/14 04:34:04;;;;;;;8.32;1.90;;;14.00;99.90;;;;;;5071920;28;20123;-76
2022/07/14 04:36:30;;;;;;;9.27;1.75;;;14.10;99.90;;;;;;5073255;28;20045;-76
2022/07/14 04:38:59;;;;;;;7.07;1.55;;;14.20;99.90;;;;;;5073443;28;20037;-76
2022/07/14 04:41:25;;;;;;;8.38;2.10;;;14.20;99.90;;;;;;5073058;28;20519;-76
2022/07/14 04:43:51;;;;;;;8.20;2.10;;;14.30;99.90;;;;;;5073364;28;20037;-76
2022/07/14 04:46:16;;;;;;;5.88;2.13;;;14.40;99.90;;;;;;5073316;28;20423;-76
2022/07/14 04:54:10;;;;;;;6.20;1.95;;;14.70;99.90;;;;;;5073302;28;20083;-76
2022/07/14 04:56:36;;;;;;;9.30;2.60;;;14.80;99.90;;;;;;5073028;28;20076;-76
2022/07/14 04:59:01;;;;;;;7.72;2.20;;;14.80;99.90;;;;;;5073184;28;20036;-76
2022/07/14 05:01:27;;;;;;;10.05;1.98;;;14.90;99.90;;;;;;5073028;28;20123;-77
2022/07/14 05:03:53;;;;;;;9.30;1.98;;;15.00;99.90;;;;;;5072939;28;20384;-77
2022/07/14 05:06:18;;;;;;;7.30;1.60;;;15.10;99.90;;;;;;5072866;28;20046;-77
2022/07/14 05:08:44;;;;;;;11.18;2.00;;;15.20;99.90;;;;;;5088675;28;20132;-77
2022/07/14 05:11:10;;;;;;;9.70;2.10;;;15.30;99.90;;;;;;5092196;28;20060;-77
2022/07/14 05:13:35;;;;;;;8.98;2.38;;;15.30;99.90;;;;;;5076817;28;20029;-77
2022/07/14 05:16:01;;;;;;;6.68;1.70;;;15.40;99.90;;;;;;5076577;28;20510;-77
2022/07/14 05:18:26;;;;;;;9.82;1.88;;;15.60;99.90;;;;;;5076477;28;20045;-77
2022/07/14 05:20:52;;;;;;;9.18;1.85;;;15.60;99.90;;;;;;5076342;28;20052;-77
2022/07/14 05:23:18;;;;;;;8.02;1.92;;;15.80;99.90;;;;;;5076311;28;20037;-77
2022/07/14 05:25:44;;;;;;;10.38;1.80;;;15.80;99.90;;;;;;5076642;28;20043;-77
2022/07/14 05:28:09;;;;;;;5.28;1.52;;;15.90;99.90;;;;;;5076455;28;20158;-77
2022/07/14 05:30:35;;;;;;;6.10;2.13;;;16.10;99.90;;;;;;5076386;28;20041;-77
2022/07/14 05:33:01;;;;;;;8.32;1.73;;;16.10;99.90;;;;;;5075024;28;20044;-76
2022/07/14 05:35:27;;;;;;;7.30;1.60;;;16.10;99.90;;;;;;5076152;28;20065;-76
2022/07/14 05:37:52;;;;;;;7.53;1.38;;;16.20;99.90;;;;;;5076414;28;20050;-76
2022/07/14 05:40:18;;;;;;;9.85;1.60;;;16.20;99.90;;;;;;5076104;28;20083;-76
2022/07/14 05:42:44;;;;;;;6.13;1.40;;;16.40;99.90;;;;;;5091702;28;20040;-76
2022/07/14 05:45:10;;;;;;;5.97;1.60;;;16.40;99.90;;;;;;5075950;28;20055;-76
2022/07/14 05:47:35;;;;;;;6.40;1.63;;;16.60;99.90;;;;;;5076101;28;20031;-76
2022/07/14 05:50:02;;;;;;;7.43;1.88;;;16.80;99.90;;;;;;5075747;28;20391;-76
2022/07/14 05:52:30;;;;;;;9.60;1.88;;;16.90;99.90;;;;;;5074619;28;20055;-76
2022/07/14 05:54:59;;;;;;;8.18;1.63;;;17.00;99.90;;;;;;5074567;28;20040;-76
2022/07/14 05:57:26;;;;;;;4.50;1.30;;;17.20;99.90;;;;;;5075925;28;20051;-76
2022/07/14 05:59:52;;;;;;;9.10;1.67;;;17.10;99.90;;;;;;5075751;28;20483;-76
2022/07/14 06:02:17;;;;;;;5.45;2.00;;;17.00;99.90;;;;;;5075670;28;20483;-77
2022/07/14 06:04:43;;;;;;;4.45;1.50;;;16.80;99.90;;;;;;5075920;28;20051;-76
2022/07/14 06:07:09;;;;;;;10.93;2.45;;;16.80;99.90;;;;;;5076268;28;20131;-76
2022/07/14 06:09:36;;;;;;;7.53;1.70;;;16.70;99.90;;;;;;5075732;28;20068;-76
2022/07/14 06:12:06;;;;;;;7.10;1.40;;;16.70;99.90;;;;;;5075569;28;20128;-77
2022/07/14 06:14:32;;;;;;;3.45;1.17;;;16.80;99.90;;;;;;5075739;28;20037;-76
2022/07/14 06:16:58;;;;;;;4.65;1.23;;;16.80;99.90;;;;;;5074387;28;20051;-76
2022/07/14 06:19:23;;;;;;;4.28;1.95;;;17.00;99.90;;;;;;5091041;28;20045;-77
2022/07/14 06:21:49;;;;;;;5.82;1.35;;;17.00;99.90;;;;;;5090694;28;20071;-76
2022/07/14 06:24:15;;;;;;;6.40;1.27;;;17.20;99.90;;;;;;5075492;28;20041;-76
2022/07/14 06:26:41;;;;;;;9.30;2.00;;;17.50;99.90;;;;;;5075219;28;20056;-76
2022/07/14 06:29:06;;;;;;;7.47;1.48;;;17.50;99.90;;;;;;5091073;28;20131;-76
2022/07/14 06:31:34;;;;;;;5.03;1.58;;;17.50;99.90;;;;;;5075304;28;20047;-76
2022/07/14 06:34:00;;;;;;;5.88;0.90;;;17.60;99.90;;;;;;5075332;28;20140;-77
2022/07/14 06:36:26;;;;;;;6.47;1.33;;;17.80;99.90;;;;;;5074780;28;20036;-77
2022/07/14 06:38:52;;;;;;;3.70;0.90;;;17.80;99.90;;;;;;5081729;28;20050;-74
2022/07/14 06:41:21;;;;;;;3.85;0.68;;;17.80;99.90;;;;;;5095237;28;20062;-74
2022/07/14 06:43:46;;;;;;;5.05;0.88;;;17.80;99.90;;;;;;5095153;28;20101;-75
2022/07/14 06:46:16;;;;;;;5.47;0.80;;;17.90;99.90;;;;;;5093583;28;20044;-74
2022/07/14 06:48:42;;;;;;;6.03;0.90;;;18.10;99.90;;;;;;5095089;28;20040;-74
2022/07/14 06:51:08;;;;;;;2.92;0.50;;;18.50;99.90;;;;;;5094859;28;20131;-76
2022/07/14 06:53:33;;;;;;;8.40;1.00;;;18.70;99.90;;;;;;5094992;28;20082;-76
2022/07/14 06:55:59;;;;;;;6.55;1.00;;;18.90;99.90;;;;;;5093704;28;20044;-76
2022/07/14 06:58:25;;;;;;;7.80;0.80;;;18.80;99.90;;;;;;5093698;28;20089;-76
2022/07/14 07:00:50;;;;;;;5.05;0.60;;;18.80;99.90;;;;;;5094497;28;20158;-76
2022/07/14 07:03:16;;;;;;;2.40;0.60;;;18.80;99.90;;;;;;5094782;28;20498;-76
2022/07/14 07:08:28;;;;;;;6.00;0.70;;;18.80;99.90;;;;;;5094540;28;20067;-76
2022/07/14 07:10:55;;;;;;;3.33;0.52;;;19.00;99.90;;;;;;5094534;28;20101;-76
2022/07/14 07:13:21;;;;;;;4.68;0.63;;;19.20;99.90;;;;;;5094295;28;20051;-76
2022/07/14 07:15:47;;;;;;;3.83;0.60;;;19.40;99.90;;;;;;5093286;28;20044;-75
2022/07/14 07:18:12;;;;;;;3.80;0.70;;;19.60;99.90;;;;;;5094514;28;20558;-75
2022/07/14 07:20:39;;;;;;;3.08;0.63;;;19.70;99.90;;;;;;5094114;28;20055;-75
2022/07/14 07:23:05;;;;;;;4.57;0.95;;;19.60;99.90;;;;;;5094360;28;20048;-76
2022/07/14 07:25:31;;;;;;;5.53;0.73;;;19.60;99.90;;;;;;5094182;28;20383;-76
2022/07/14 07:27:58;;;;;;;4.93;0.70;;;19.70;99.90;;;;;;5094279;28;20050;-76
2022/07/14 07:30:24;;;;;;;3.90;0.73;;;19.70;99.90;;;;;;5091930;28;20040;-76
2022/07/14 07:32:50;;;;;;;3.88;0.60;;;19.80;99.90;;;;;;5081324;28;20401;-76
2022/07/14 07:35:16;;;;;;;5.13;0.88;;;19.90;99.90;;;;;;5072443;28;20419;-75
2022/07/14 07:37:42;;;;;;;5.18;0.80;;;19.90;99.90;;;;;;5073680;28;20045;-76
2022/07/14 07:40:08;;;;;;;6.05;1.25;;;19.90;99.90;;;;;;5073570;28;20055;-76
2022/07/14 07:42:34;;;;;;;3.75;0.75;;;19.90;99.90;;;;;;5074059;28;20086;-75
2022/07/14 07:45:00;;;;;;;6.20;0.88;;;19.90;99.90;;;;;;5073843;28;20083;-75
2022/07/14 07:47:27;;;;;;;4.95;0.80;;;19.80;99.90;;;;;;5073589;28;20437;-75
2022/07/14 07:49:53;;;;;;;5.35;0.70;;;19.80;99.90;;;;;;5073379;28;20403;-75
2022/07/14 07:52:20;;;;;;;4.25;0.80;;;19.80;99.90;;;;;;5073825;28;20051;-76
2022/07/14 07:54:46;;;;;;;7.05;0.85;;;19.80;99.90;;;;;;5072265;28;20044;-75
2022/07/14 07:57:12;;;;;;;4.78;0.50;;;19.70;99.90;;;;;;5078883;28;20498;-76
2022/07/14 07:59:38;;;;;;;3.58;0.63;;;19.80;99.90;;;;;;5093619;28;20090;-75
2022/07/14 08:02:04;;;;;;;3.15;0.90;;;19.90;99.90;;;;;;5087084;28;20116;-75
2022/07/14 08:04:31;;;;;;;3.40;0.70;;;19.90;99.90;;;;;;5072661;28;20426;-75
2022/07/14 08:06:56;;;;;;;2.25;0.73;;;19.80;99.90;;;;;;5073282;28;20484;-75
2022/07/14 08:09:22;;;;;;;3.78;0.57;;;19.90;99.90;;;;;;5073595;28;20094;-76
2022/07/14 08:11:48;;;;;;;4.65;0.73;;;19.90;99.90;;;;;;5081512;28;20044;-76
2022/07/14 08:16:59;;;;;;;6.05;0.70;;;19.80;99.90;;;;;;5073083;28;20407;-75
2022/07/14 08:19:24;;;;;;;6.50;0.88;;;19.70;99.90;;;;;;5073318;28;20087;-76
2022/07/14 08:21:51;;;;;;;4.20;0.70;;;19.60;99.90;;;;;;5089685;28;20071;-76
2022/07/14 08:24:18;;;;;;;3.55;0.52;;;19.50;99.90;;;;;;5092012;28;20492;-76
2022/07/14 08:26:45;;;;;;;5.38;0.77;;;19.50;99.90;;;;;;5093242;28;20418;-76
2022/07/14 08:29:11;;;;;;;4.30;0.50;;;19.70;99.90;;;;;;5092256;28;20123;-77
2022/07/14 08:31:36;;;;;;;4.15;0.60;;;19.70;99.90;;;;;;5087065;28;20504;-77
2022/07/14 08:34:03;;;;;;;3.50;1.05;;;19.60;99.90;;;;;;5077055;28;20518;-77
2022/07/14 08:36:29;;;;;;;3.85;0.75;;;19.60;99.90;;;;;;5072973;28;20049;-77
2022/07/14 08:38:55;;;;;;;6.85;1.65;;;19.70;99.90;;;;;;5071757;28;20078;-76
2022/07/14 08:41:21;;;;;;;7.05;0.75;;;19.80;99.90;;;;;;5086795;28;20095;-76
2022/07/14 08:43:48;;;;;;;4.65;0.68;;;19.70;99.90;;;;;;5091955;28;20611;-76
2022/07/14 08:46:15;;;;;;;5.15;1.17;;;19.70;99.90;;;;;;5095452;28;20048;-76
2022/07/14 08:48:41;;;;;;;4.93;0.90;;;19.70;99.90;;;;;;5096262;28;20043;-76
2022/07/14 08:51:08;;;;;;;3.40;0.77;;;19.70;99.90;;;;;;5095779;28;20526;-76
2022/07/14 08:53:35;;;;;;;4.78;0.85;;;19.70;99.90;;;;;;5095771;28;20054;-77
2022/07/14 08:56:00;;;;;;;5.75;1.13;;;19.70;99.90;;;;;;5097312;28;20044;-76
2022/07/14 08:58:26;;;;;;;5.82;0.70;;;19.80;99.90;;;;;;5096960;28;20435;-76
2022/07/14 09:00:52;;;;;;;5.03;0.90;;;19.80;99.90;;;;;;5094078;28;20044;-76
2022/07/14 09:03:18;;;;;;;4.55;0.80;;;19.80;99.90;;;;;;5085583;28;20497;-76
2022/07/14 09:05:44;;;;;;;5.45;0.80;;;19.80;99.90;;;;;;5076518;28;20496;-76
2022/07/14 09:08:14;;;;;;;6.38;1.05;;;19.70;99.90;;;;;;5076317;28;20379;-76
2022/07/14 09:10:42;;;;;;;3.45;0.85;;;19.80;99.90;;;;;;5076559;28;20132;-77
2022/07/14 09:13:17;;;;;;;6.50;0.70;;;19.70;99.90;;;;;;5076429;28;20037;-77
2022/07/14 09:15:46;;;;;;;7.15;0.88;;;19.80;99.90;;;;;;5075224;28;20052;-77
2022/07/14 09:18:18;;;;;;;4.03;0.75;;;19.90;99.90;;;;;;5092277;28;20065;-77
2022/07/14 09:20:44;;;;;;;4.72;0.93;;;19.90;99.90;;;;;;5094939;28;20510;-77
2022/07/14 09:23:10;;;;;;;6.15;1.42;;;20.10;99.90;;;;;;5096135;28;20108;-77
2022/07/14 09:25:37;;;;;;;4.03;0.60;;;20.00;99.90;;;;;;5096503;28;20044;-77
2022/07/14 09:28:04;;;;;;;16.33;1.85;;;20.30;99.90;;;;;;5096861;28;20051;-76
2022/07/14 09:30:31;;;;;;;3.88;0.77;;;20.40;99.90;;;;;;5083339;28;20086;-78
2022/07/14 09:33:02;;;;;;;5.55;0.70;;;20.50;99.90;;;;;;5090993;28;20048;-76
2022/07/14 09:35:41;;;;;;;4.25;0.70;;;20.60;99.90;;;;;;5076048;28;20052;-76
2022/07/14 09:38:22;;;;;;;3.90;0.70;;;20.60;99.90;;;;;;5074877;28;20097;-76
2022/07/14 09:40:49;;;;;;;5.43;1.02;;;20.50;99.90;;;;;;5074672;28;20056;-77
2022/07/14 09:43:16;;;;;;;7.00;0.80;;;20.40;99.90;;;;;;5076144;28;20119;-77
2022/07/14 09:45:49;;;;;;;6.80;0.68;;;20.30;99.90;;;;;;5091739;28;20048;-84
2022/07/14 09:48:17;;;;;;;4.65;1.10;;;20.40;99.90;;;;;;5076324;28;20079;-77
2022/07/14 09:50:54;;;;;;;5.35;0.95;;;20.40;99.90;;;;;;5075921;28;20128;-77
2022/07/14 09:53:25;;;;;;;4.57;0.90;;;20.40;99.90;;;;;;5075988;28;20048;-77
2022/07/14 09:56:06;;;;;;;3.10;0.85;;;20.50;99.90;;;;;;5075057;28;20506;-78
2022/07/14 09:58:54;;;;;;;5.90;0.90;;;20.40;99.90;;;;;;5075744;28;20381;-77
2022/07/14 10:01:20;;;;;;;5.78;1.10;;;20.40;99.90;;;;;;5057033;28;20527;-78
2022/07/14 10:03:51;;;;;;;5.07;1.00;;;20.70;99.90;;;;;;5076275;28;20037;-77
2022/07/14 10:06:18;;;;;;;4.68;0.70;;;20.90;99.90;;;;;;5074207;28;20041;-77
2022/07/14 10:08:49;;;;;;;5.65;1.02;;;20.90;99.90;;;;;;5074441;28;20041;-77
2022/07/14 10:11:16;;;;;;;4.17;0.97;;;20.90;99.90;;;;;;5074128;28;20044;-77
2022/07/14 10:13:42;;;;;;;5.75;0.95;;;20.90;99.90;;;;;;5075635;28;20123;-77
2022/07/14 10:16:08;;;;;;;6.30;1.00;;;20.90;99.90;;;;;;5091090;28;20040;-77
2022/07/14 10:18:34;;;;;;;6.93;1.05;;;20.80;99.90;;;;;;5075585;28;20036;-77
2022/07/14 10:21:04;;;;;;;5.28;1.60;;;20.70;99.90;;;;;;5073814;28;20611;-77
2022/07/14 10:23:30;;;;;;;3.65;0.80;;;20.70;99.90;;;;;;5084107;28;20044;-77
2022/07/14 10:25:58;;;;;;;3.95;0.70;;;20.60;99.90;;;;;;5075687;28;20044;-78
2022/07/14 10:28:26;;;;;;;9.50;1.20;;;20.60;99.90;;;;;;5074021;28;20440;-77
2022/07/14 10:31:10;;;;;;;5.15;0.93;;;20.60;99.90;;;;;;5073628;28;20036;-77
2022/07/14 10:34:06;;;;;;;3.05;0.60;;;20.60;99.90;;;;;;5090565;28;20491;-77
2022/07/14 10:36:53;;;;;;;6.75;0.90;;;20.50;99.90;;;;;;5073947;28;20052;-78
2022/07/14 10:39:40;;;;;;;4.60;0.90;;;20.50;99.90;;;;;;5075473;28;20048;-77
2022/07/14 10:42:18;;;;;;;5.65;1.02;;;20.30;99.90;;;;;;5074999;28;20037;-78
2022/07/14 10:44:46;;;;;;;7.68;1.23;;;20.20;99.90;;;;;;5074982;28;20040;-77
2022/07/14 10:47:17;;;;;;;7.43;1.27;;;20.20;99.90;;;;;;5074823;28;20111;-77
2022/07/14 10:50:05;;;;;;;4.75;1.00;;;20.20;99.90;;;;;;5074482;28;20492;-78
2022/07/14 10:52:33;;;;;;;8.10;1.10;;;20.10;99.90;;;;;;5074749;28;20048;-78
2022/07/14 10:55:17;;;;;;;4.10;0.70;;;20.10;99.90;;;;;;5073470;28;20040;-77
2022/07/14 10:57:58;;;;;;;5.15;1.10;;;20.30;99.90;;;;;;5090313;28;20496;-76
2022/07/14 11:00:47;;;;;;;6.47;0.98;;;20.30;99.90;;;;;;5089822;28;20078;-77
2022/07/14 11:03:28;;;;;;;3.50;0.80;;;20.40;99.90;;;;;;5074560;28;20089;-76
2022/07/14 11:06:03;;;;;;;5.95;1.15;;;20.50;99.90;;;;;;5090056;28;20052;-77
2022/07/14 11:08:33;;;;;;;4.03;0.75;;;20.60;99.90;;;;;;5073480;28;20048;-77
2022/07/14 11:11:00;;;;;;;3.83;0.82;;;20.80;99.90;;;;;;5074280;28;20049;-78
2022/07/14 11:13:26;;;;;;;5.65;1.00;;;20.90;99.90;;;;;;5073983;28;20449;-77
2022/07/14 11:15:56;;;;;;;6.55;0.88;;;21.00;99.90;;;;;;5074205;28;20053;-78
2022/07/14 11:18:48;;;;;;;4.60;1.10;;;20.90;99.90;;;;;;5090017;28;20048;-77
2022/07/14 11:21:16;;;;;;;5.55;0.98;;;21.00;99.90;;;;;;5071713;28;20052;-77
2022/07/14 11:23:48;;;;;;;4.80;1.15;;;20.90;99.90;;;;;;5089842;28;20120;-78
2022/07/14 11:26:35;;;;;;;4.13;0.80;;;20.90;99.90;;;;;;5089586;28;20123;-78
2022/07/14 11:29:02;;;;;;;4.07;1.25;;;20.90;99.90;;;;;;5073778;28;20048;-77
2022/07/14 11:31:43;;;;;;;3.10;0.88;;;20.90;99.90;;;;;;5072585;28;20044;-77
2022/07/14 11:37:13;;;;;;;5.38;1.05;;;20.70;99.90;;;;;;5073797;28;20147;-78
2022/07/14 11:39:42;;;;;;;4.28;1.20;;;20.70;99.90;;;;;;5073727;28;20515;-77
2022/07/14 11:42:11;;;;;;;3.30;0.70;;;20.80;99.90;;;;;;5089461;28;20048;-77
2022/07/14 11:44:40;;;;;;;6.00;0.93;;;20.80;99.90;;;;;;5073645;28;20053;-77
2022/07/14 11:47:29;;;;;;;5.38;1.00;;;20.90;99.90;;;;;;5074166;28;20048;-78
2022/07/14 11:50:04;;;;;;;4.68;1.00;;;21.20;99.90;;;;;;5073788;28;20049;-77
2022/07/14 11:52:35;;;;;;;5.60;0.93;;;21.50;99.90;;;;;;5072053;28;20052;-77
2022/07/14 11:55:05;;;;;;;7.95;1.15;;;21.70;99.90;;;;;;5073704;28;20036;-76
2022/07/14 11:57:31;;;;;;;7.75;1.67;;;21.90;99.90;;;;;;5073325;28;20040;-77
2022/07/14 12:00:04;;;;;;;3.42;0.85;;;22.20;99.90;;;;;;5073665;28;20052;-77
2022/07/14 12:02:29;;;;;;;5.00;1.40;;;22.30;99.90;;;;;;5073346;28;20051;-77
2022/07/14 12:05:00;;;;;;;4.80;1.17;;;22.60;99.90;;;;;;5071920;28;20127;-79
2022/07/14 12:07:42;;;;;;;3.55;1.10;;;22.60;99.90;;;;;;5072337;28;20048;-77
2022/07/14 12:10:09;;;;;;;3.38;1.13;;;22.60;99.90;;;;;;5089326;28;20546;-78
2022/07/14 12:12:47;;;;;;;4.22;0.85;;;22.60;99.90;;;;;;5073149;28;20044;-78
2022/07/14 12:15:23;;;;;;;3.58;0.70;;;22.70;99.90;;;;;;5072281;28;20127;-78
2022/07/14 12:17:51;;;;;;;4.40;1.17;;;22.50;99.90;;;;;;5072892;28;20437;-78
2022/07/14 12:20:18;;;;;;;7.63;1.00;;;22.50;99.90;;;;;;5073078;28;20052;-77
2022/07/14 12:22:45;;;;;;;6.88;0.90;;;22.50;99.90;;;;;;5073403;28;20088;-77
2022/07/14 12:25:36;;;;;;;5.82;1.10;;;22.60;99.90;;;;;;5073105;28;20613;-78
2022/07/14 12:28:04;;;;;;;4.88;1.45;;;22.60;99.90;;;;;;5072981;28;20036;-78
2022/07/14 12:30:51;;;;;;;6.22;1.23;;;22.70;99.90;;;;;;5088729;28;20561;-77
2022/07/14 12:33:22;;;;;;;8.00;1.58;;;22.90;99.90;;;;;;5072961;28;20549;-78
2022/07/14 12:35:53;;;;;;;5.40;1.27;;;23.00;99.90;;;;;;5073289;28;20047;-78
2022/07/14 12:38:19;;;;;;;5.60;0.95;;;23.00;99.90;;;;;;5072918;28;20044;-77
2022/07/14 12:40:58;;;;;;;4.45;0.82;;;23.00;99.90;;;;;;5071732;28;20080;-78
2022/07/14 12:43:26;;;;;;;6.28;1.48;;;23.00;99.90;;;;;;5072892;28;20404;-78
2022/07/14 12:46:18;;;;;;;6.72;0.95;;;22.90;99.90;;;;;;5072892;28;20552;-78
2022/07/14 12:48:49;;;;;;;5.35;0.82;;;22.90;99.90;;;;;;5067189;28;20053;-78
2022/07/14 12:51:33;;;;;;;5.70;0.93;;;22.90;99.90;;;;;;5072693;28;20438;-78
2022/07/14 12:54:11;;;;;;;5.93;0.93;;;22.90;99.90;;;;;;5072846;28;20056;-79
2022/07/14 12:56:47;;;;;;;6.85;1.42;;;23.10;99.90;;;;;;5073019;28;20047;-78
2022/07/14 12:59:19;;;;;;;5.10;1.35;;;23.00;99.90;;;;;;5072993;28;20048;-79
2022/07/14 13:01:53;;;;;;;6.75;1.20;;;23.10;99.90;;;;;;5073142;28;20120;-78
2022/07/14 13:04:31;;;;;;;3.78;0.68;;;23.10;99.90;;;;;;5073050;28;20055;-78
2022/07/14 13:07:00;;;;;;;7.47;1.00;;;22.80;99.90;;;;;;5072747;28;20033;-78